createdAt,value
2022-10-07T00:00:55.163Z,65.00
2022-10-07T00:03:24.047Z,65.00
2022-10-07T00:06:05.822Z,65.10
2022-10-07T00:08:34.949Z,65.10
2022-10-07T00:11:12.668Z,65.10
2022-10-07T00:13:40.852Z,65.10
2022-10-07T00:16:10.423Z,65.20
2022-10-07T00:18:38.210Z,65.20
2022-10-07T00:21:06.989Z,65.30
2022-10-07T00:23:34.402Z,65.30
2022-10-07T00:26:07.326Z,65.30
2022-10-07T00:28:35.107Z,65.30
2022-10-07T00:31:03.867Z,65.30
2022-10-07T00:33:33.259Z,65.40
2022-10-07T00:36:00.796Z,65.40
2022-10-07T00:38:31.017Z,65.40
2022-10-07T00:40:58.328Z,65.50
2022-10-07T00:43:32.501Z,65.50
2022-10-07T00:46:15.010Z,65.50
2022-10-07T00:48:43.014Z,65.60
2022-10-07T00:51:10.583Z,65.60
2022-10-07T00:53:41.067Z,65.60
2022-10-07T00:56:09.088Z,65.70
2022-10-07T00:58:38.029Z,65.70
2022-10-07T01:01:07.183Z,65.70
2022-10-07T01:03:36.154Z,65.90
2022-10-07T01:06:04.293Z,65.90
2022-10-07T01:08:32.941Z,65.90
2022-10-07T01:11:40.451Z,66.00
2022-10-07T01:14:16.818Z,66.00
2022-10-07T01:17:04.845Z,66.00
2022-10-07T01:19:41.144Z,66.10
2022-10-07T01:22:14.225Z,66.70
2022-10-07T01:24:52.625Z,66.20
2022-10-07T01:27:22.577Z,66.20
2022-10-07T01:29:56.611Z,66.20
2022-10-07T01:32:24.014Z,66.20
2022-10-07T01:34:54.975Z,66.30
2022-10-07T01:37:24.207Z,66.30
2022-10-07T01:39:55.239Z,66.40
2022-10-07T01:42:23.008Z,66.30
2022-10-07T01:44:53.058Z,66.30
2022-10-07T01:47:20.470Z,66.40
2022-10-07T01:49:48.823Z,66.40
2022-10-07T01:52:25.549Z,66.40
2022-10-07T01:55:18.252Z,66.40
2022-10-07T01:58:06.458Z,66.40
2022-10-07T02:00:37.250Z,66.50
2022-10-07T02:03:18.004Z,66.50
2022-10-07T02:06:08.642Z,66.60
2022-10-07T02:08:47.277Z,66.60
2022-10-07T02:11:25.960Z,66.70
2022-10-07T02:14:08.607Z,66.70
2022-10-07T02:16:49.021Z,66.70
2022-10-07T02:19:20.027Z,66.70
2022-10-07T02:21:49.819Z,66.70
2022-10-07T02:24:19.486Z,67.00
2022-10-07T02:26:47.650Z,66.80
2022-10-07T02:29:16.418Z,66.80
2022-10-07T02:31:45.243Z,66.90
2022-10-07T02:34:19.689Z,66.90
2022-10-07T02:36:53.155Z,66.90
2022-10-07T02:39:21.771Z,67.00
2022-10-07T02:41:52.310Z,67.00
2022-10-07T02:44:42.227Z,67.00
2022-10-07T02:47:14.722Z,67.00
2022-10-07T02:49:43.170Z,67.10
2022-10-07T02:52:14.211Z,67.20
2022-10-07T02:54:47.415Z,67.10
2022-10-07T02:57:17.576Z,67.20
2022-10-07T02:59:46.220Z,67.20
2022-10-07T03:02:19.895Z,67.20
2022-10-07T03:04:48.286Z,67.30
2022-10-07T03:07:16.027Z,67.30
2022-10-07T03:09:43.768Z,67.30
2022-10-07T03:12:12.982Z,67.40
2022-10-07T03:14:40.619Z,67.30
2022-10-07T03:17:09.080Z,67.40
2022-10-07T03:19:36.617Z,67.40
2022-10-07T03:22:03.993Z,67.30
2022-10-07T03:24:34.568Z,67.40
2022-10-07T03:27:01.826Z,67.40
2022-10-07T03:29:32.939Z,67.50
2022-10-07T03:32:00.453Z,67.40
2022-10-07T03:34:28.545Z,67.50
2022-10-07T03:36:56.323Z,67.50
2022-10-07T03:39:23.709Z,67.60
2022-10-07T03:41:51.846Z,67.60
2022-10-07T03:44:19.723Z,67.60
2022-10-07T03:46:51.022Z,67.60
2022-10-07T03:49:20.538Z,67.60
2022-10-07T03:51:47.930Z,67.60
2022-10-07T03:54:15.244Z,67.70
2022-10-07T03:56:42.602Z,67.70
2022-10-07T03:59:09.926Z,67.70
2022-10-07T04:01:38.430Z,67.70
2022-10-07T04:04:07.896Z,67.70
2022-10-07T04:06:38.135Z,67.70
2022-10-07T04:09:12.092Z,67.70
2022-10-07T04:11:41.789Z,67.80
2022-10-07T04:14:09.803Z,67.80
2022-10-07T04:16:39.127Z,67.80
2022-10-07T04:19:08.891Z,67.80
2022-10-07T04:21:36.393Z,67.90
2022-10-07T04:24:04.488Z,67.90
2022-10-07T04:26:32.382Z,67.90
2022-10-07T04:29:00.358Z,67.90
2022-10-07T04:31:28.406Z,68.00
2022-10-07T04:34:03.832Z,68.00
2022-10-07T04:36:35.652Z,68.00
2022-10-07T04:39:12.315Z,68.00
2022-10-07T04:41:55.040Z,68.10
2022-10-07T04:44:27.572Z,68.70
2022-10-07T04:47:05.657Z,68.20
2022-10-07T04:49:34.788Z,68.30
2022-10-07T04:52:04.674Z,68.30
2022-10-07T04:54:36.442Z,68.40
2022-10-07T04:57:03.962Z,68.40
2022-10-07T04:59:33.728Z,68.50
2022-10-07T05:02:02.343Z,68.60
2022-10-07T05:04:32.187Z,68.70
2022-10-07T05:06:59.689Z,68.70
2022-10-07T05:09:27.423Z,68.70
2022-10-07T05:11:57.865Z,68.70
2022-10-07T05:14:25.160Z,68.80
2022-10-07T05:16:53.267Z,68.90
2022-10-07T05:19:23.345Z,68.90
2022-10-07T05:21:50.757Z,68.90
2022-10-07T05:24:19.141Z,69.00
2022-10-07T05:26:47.739Z,69.00
2022-10-07T05:29:14.956Z,69.00
2022-10-07T05:31:49.579Z,69.10
2022-10-07T05:34:20.480Z,69.30
2022-10-07T05:36:48.064Z,69.30
2022-10-07T05:39:15.673Z,69.30
2022-10-07T05:42:05.953Z,69.40
2022-10-07T05:44:40.069Z,69.50
2022-10-07T05:47:07.578Z,69.60
2022-10-07T05:49:36.270Z,69.60
2022-10-07T05:52:04.816Z,69.70
2022-10-07T05:54:34.110Z,69.70
2022-10-07T05:57:01.656Z,69.70
2022-10-07T05:59:30.048Z,69.80
2022-10-07T06:02:00.613Z,69.90
2022-10-07T06:04:28.988Z,70.00
2022-10-07T06:06:56.733Z,70.00
2022-10-07T06:09:42.680Z,70.00
2022-10-07T06:12:33.488Z,70.00
2022-10-07T06:15:05.251Z,70.10
2022-10-07T06:17:32.833Z,70.30
2022-10-07T06:20:02.707Z,70.20
2022-10-07T06:22:29.988Z,70.30
2022-10-07T06:24:59.087Z,70.40
2022-10-07T06:27:26.713Z,70.40
2022-10-07T06:29:54.862Z,70.50
2022-10-07T06:32:22.970Z,70.60
2022-10-07T06:34:51.922Z,70.70
2022-10-07T06:37:20.920Z,70.70
2022-10-07T06:39:48.270Z,70.70
2022-10-07T06:42:15.800Z,70.80
2022-10-07T06:44:58.956Z,70.80
2022-10-07T06:47:26.370Z,70.90
2022-10-07T06:49:53.729Z,71.00
2022-10-07T06:52:21.224Z,70.90
2022-10-07T06:54:48.632Z,71.00
2022-10-07T06:57:43.634Z,71.00
2022-10-07T07:00:05.429Z,71.10
2022-10-07T07:02:34.884Z,71.20
2022-10-07T07:05:04.908Z,71.30
2022-10-07T07:07:32.925Z,71.40
2022-10-07T07:10:00.918Z,71.50
2022-10-07T07:12:31.606Z,71.40
2022-10-07T07:15:00.517Z,71.40
2022-10-07T07:17:27.982Z,71.60
2022-10-07T07:19:56.740Z,71.70
2022-10-07T07:22:26.090Z,71.60
2022-10-07T07:24:54.206Z,71.80
2022-10-07T07:27:22.019Z,71.80
2022-10-07T07:29:50.547Z,71.80
2022-10-07T07:32:18.051Z,71.80
2022-10-07T07:34:47.014Z,71.90
2022-10-07T07:37:20.327Z,71.80
2022-10-07T07:39:51.721Z,71.90
2022-10-07T07:42:19.252Z,71.90
2022-10-07T07:44:48.176Z,71.90
2022-10-07T07:47:17.335Z,71.90
2022-10-07T07:49:46.254Z,71.90
2022-10-07T07:52:20.825Z,71.90
2022-10-07T07:54:49.033Z,72.00
2022-10-07T07:57:16.363Z,72.00
2022-10-07T07:59:44.026Z,72.00
2022-10-07T08:02:15.244Z,71.80
2022-10-07T08:04:46.427Z,72.00
2022-10-07T08:07:13.887Z,71.90
2022-10-07T08:09:44.727Z,71.90
2022-10-07T08:12:14.883Z,72.00
2022-10-07T08:14:43.507Z,72.00
2022-10-07T08:17:12.552Z,72.00
2022-10-07T08:19:40.278Z,72.10
2022-10-07T08:22:09.104Z,71.90
2022-10-07T08:24:37.933Z,71.80
2022-10-07T08:27:05.504Z,71.80
2022-10-07T08:29:32.869Z,71.80
2022-10-07T08:32:00.249Z,71.70
2022-10-07T08:34:27.590Z,71.80
2022-10-07T08:36:56.379Z,71.70
2022-10-07T08:39:24.905Z,71.70
2022-10-07T08:41:59.626Z,71.60
2022-10-07T08:44:36.335Z,71.60
2022-10-07T08:47:12.641Z,71.70
2022-10-07T08:49:43.849Z,71.70
2022-10-07T08:52:21.771Z,71.60
2022-10-07T08:54:49.789Z,71.80
2022-10-07T08:57:23.320Z,71.80
2022-10-07T08:59:54.549Z,71.60
2022-10-07T09:02:36.749Z,71.60
2022-10-07T09:05:18.050Z,71.60
2022-10-07T09:07:48.611Z,71.70
2022-10-07T09:10:53.622Z,71.70
2022-10-07T09:13:23.235Z,71.50
2022-10-07T09:16:20.295Z,71.70
2022-10-07T09:18:51.130Z,71.70
2022-10-07T09:21:20.232Z,71.70
2022-10-07T09:23:47.600Z,71.80
2022-10-07T09:26:16.477Z,71.90
2022-10-07T09:28:44.004Z,71.90
2022-10-07T09:31:14.087Z,71.90
2022-10-07T09:33:42.849Z,71.90
2022-10-07T09:36:11.570Z,71.80
2022-10-07T09:38:40.216Z,72.00
2022-10-07T09:41:19.773Z,71.80
2022-10-07T09:43:49.929Z,71.80
2022-10-07T09:46:39.573Z,71.70
2022-10-07T09:49:07.736Z,71.60
2022-10-07T09:51:35.634Z,71.40
2022-10-07T09:54:04.804Z,71.30
2022-10-07T09:56:39.415Z,71.20
2022-10-07T09:59:26.209Z,71.10
2022-10-07T10:01:55.078Z,71.00
2022-10-07T10:04:45.059Z,71.00
2022-10-07T10:07:20.406Z,70.90
2022-10-07T10:09:55.364Z,70.60
2022-10-07T10:12:26.262Z,70.70
2022-10-07T10:15:00.811Z,70.60
2022-10-07T10:17:28.113Z,70.40
2022-10-07T10:19:56.194Z,70.50
2022-10-07T10:22:28.391Z,70.50
2022-10-07T10:25:14.580Z,70.60
2022-10-07T10:27:46.485Z,70.60
2022-10-07T10:30:21.835Z,70.60
2022-10-07T10:33:07.975Z,70.60
2022-10-07T10:36:06.397Z,70.70
2022-10-07T10:38:47.326Z,70.70
2022-10-07T10:41:23.697Z,70.60
2022-10-07T10:44:14.527Z,70.60
2022-10-07T10:46:52.769Z,70.60
2022-10-07T10:49:29.452Z,70.90
2022-10-07T10:52:15.453Z,70.30
2022-10-07T10:54:52.386Z,70.30
2022-10-07T10:57:33.849Z,70.30
2022-10-07T11:00:13.441Z,70.10
2022-10-07T11:02:48.185Z,69.90
2022-10-07T11:05:21.988Z,69.90
2022-10-07T11:07:54.189Z,69.80
2022-10-07T11:10:41.732Z,69.40
2022-10-07T11:13:19.212Z,69.00
2022-10-07T11:16:06.887Z,68.80
2022-10-07T11:18:37.197Z,68.90
2022-10-07T11:21:08.169Z,69.10
2022-10-07T11:23:41.847Z,69.20
2022-10-07T11:26:29.976Z,69.30
2022-10-07T11:29:01.372Z,69.30
2022-10-07T11:31:40.270Z,69.30
2022-10-07T11:34:07.701Z,69.10
2022-10-07T11:36:41.933Z,68.90
2022-10-07T11:39:09.371Z,68.60
2022-10-07T11:41:43.480Z,68.70
2022-10-07T11:44:20.023Z,68.50
2022-10-07T11:46:47.809Z,68.50
2022-10-07T11:49:17.701Z,68.20
2022-10-07T11:51:51.711Z,68.20
2022-10-07T11:54:20.977Z,68.10
2022-10-07T11:56:52.583Z,68.10
2022-10-07T11:59:38.449Z,67.80
2022-10-07T12:02:06.603Z,67.70
2022-10-07T12:04:36.850Z,67.90
2022-10-07T12:07:22.867Z,67.90
2022-10-07T12:09:54.695Z,67.90
2022-10-07T12:12:25.238Z,67.80
2022-10-07T12:14:59.975Z,67.80
2022-10-07T12:17:29.079Z,68.10
2022-10-07T12:20:16.224Z,67.90
2022-10-07T12:22:43.889Z,68.10
2022-10-07T12:25:32.589Z,68.20
2022-10-07T12:28:00.600Z,68.20
2022-10-07T12:30:50.856Z,68.20
2022-10-07T12:33:34.595Z,68.30
2022-10-07T12:36:21.517Z,68.20
2022-10-07T12:38:58.689Z,68.70
2022-10-07T12:41:26.835Z,67.70
2022-10-07T12:44:06.696Z,67.90
2022-10-07T12:46:54.358Z,67.80
2022-10-07T12:49:30.652Z,67.50
2022-10-07T12:52:00.013Z,67.50
2022-10-07T12:54:27.459Z,66.60
2022-10-07T12:56:54.847Z,66.60
2022-10-07T12:59:49.246Z,66.50
2022-10-07T13:02:25.315Z,66.90
2022-10-07T13:04:58.560Z,66.80
2022-10-07T13:07:38.422Z,66.80
2022-10-07T13:10:23.672Z,67.00
2022-10-07T13:13:03.023Z,66.70
2022-10-07T13:15:33.653Z,66.80
2022-10-07T13:18:08.609Z,66.00
2022-10-07T13:20:44.048Z,65.70
2022-10-07T13:23:26.084Z,66.00
2022-10-07T13:25:56.517Z,66.00
2022-10-07T13:28:25.097Z,66.30
2022-10-07T13:30:53.150Z,66.20
2022-10-07T13:33:20.401Z,66.10
2022-10-07T13:35:48.003Z,66.20
2022-10-07T13:38:41.405Z,66.10
2022-10-07T13:41:14.151Z,66.00
2022-10-07T13:43:42.518Z,66.30
2022-10-07T13:46:10.386Z,66.30
2022-10-07T13:48:43.028Z,66.50
2022-10-07T13:51:38.668Z,66.40
2022-10-07T13:54:08.184Z,66.30
2022-10-07T13:56:36.401Z,66.10
2022-10-07T13:59:04.610Z,65.90
2022-10-07T14:01:32.588Z,66.00
2022-10-07T14:04:00.574Z,65.50
2022-10-07T14:06:58.013Z,65.60
2022-10-07T14:09:44.185Z,65.60
2022-10-07T14:12:22.802Z,65.60
2022-10-07T14:14:52.616Z,65.90
2022-10-07T14:17:38.497Z,65.90
2022-10-07T14:20:07.486Z,65.90
2022-10-07T14:22:37.220Z,65.80
2022-10-07T14:25:05.992Z,65.80
2022-10-07T14:27:52.825Z,65.90
2022-10-07T14:30:26.555Z,65.80
2022-10-07T14:33:32.644Z,65.80
2022-10-07T14:36:29.289Z,65.90
2022-10-07T14:38:58.337Z,66.00
2022-10-07T14:41:29.180Z,66.00
2022-10-07T14:44:00.454Z,65.70
2022-10-07T14:46:29.056Z,65.60
2022-10-07T14:48:56.471Z,65.50
2022-10-07T14:51:25.327Z,65.60
2022-10-07T14:53:54.918Z,65.60
2022-10-07T14:56:27.154Z,65.40
2022-10-07T14:58:55.191Z,65.30
2022-10-07T15:01:22.782Z,65.50
2022-10-07T15:03:50.624Z,65.40
2022-10-07T15:06:18.457Z,65.50
2022-10-07T15:08:46.659Z,65.60
2022-10-07T15:13:25.180Z,65.00
2022-10-07T15:15:52.724Z,65.40
2022-10-07T15:18:20.353Z,65.50
2022-10-07T15:20:55.841Z,65.40
2022-10-07T15:23:24.052Z,64.90
2022-10-07T15:25:52.659Z,65.10
2022-10-07T15:28:20.129Z,65.10
2022-10-07T15:30:47.687Z,65.00
2022-10-07T15:33:15.174Z,65.00
2022-10-07T15:35:44.129Z,65.20
2022-10-07T15:38:11.593Z,65.40
2022-10-07T15:40:55.427Z,65.40
2022-10-07T15:43:23.451Z,65.50
2022-10-07T15:45:51.729Z,65.30
2022-10-07T15:48:23.421Z,65.10
2022-10-07T15:50:56.248Z,65.10
2022-10-07T15:53:25.163Z,64.90
2022-10-07T15:55:57.321Z,64.90
2022-10-07T15:58:30.906Z,64.90
2022-10-07T16:01:04.926Z,65.10
2022-10-07T16:03:38.866Z,65.10
2022-10-07T16:06:14.449Z,65.30
2022-10-07T16:08:42.155Z,65.20
2022-10-07T16:11:11.712Z,65.20
2022-10-07T16:13:41.113Z,65.40
2022-10-07T16:16:11.890Z,65.30
2022-10-07T16:18:42.036Z,65.40
2022-10-07T16:21:12.854Z,65.60
2022-10-07T16:23:45.687Z,65.60
2022-10-07T16:26:15.560Z,65.70
2022-10-07T16:29:04.481Z,65.80
2022-10-07T16:31:33.543Z,65.90
2022-10-07T16:34:01.533Z,65.90
2022-10-07T16:36:29.462Z,65.90
2022-10-07T16:38:59.993Z,65.90
2022-10-07T16:41:27.469Z,65.80
2022-10-07T16:44:00.354Z,65.70
2022-10-07T16:46:29.112Z,65.90
2022-10-07T16:48:56.706Z,65.80
2022-10-07T16:51:26.331Z,65.80
2022-10-07T16:53:56.141Z,65.80
2022-10-07T16:56:24.180Z,65.70
2022-10-07T16:58:59.970Z,65.70
2022-10-07T17:01:28.538Z,65.80
2022-10-07T17:03:58.819Z,65.80
2022-10-07T17:06:28.277Z,65.80
2022-10-07T17:08:57.304Z,65.90
2022-10-07T17:11:30.888Z,65.90
2022-10-07T17:14:17.966Z,66.10
2022-10-07T17:16:48.062Z,66.00
2022-10-07T17:19:17.875Z,66.00
2022-10-07T17:21:47.929Z,65.90
2022-10-07T17:24:17.307Z,66.00
2022-10-07T17:26:47.103Z,66.00
2022-10-07T17:29:18.449Z,66.00
2022-10-07T17:31:53.511Z,66.00
2022-10-07T17:34:22.104Z,66.00
2022-10-07T17:36:50.501Z,66.10
2022-10-07T17:39:19.595Z,66.10
2022-10-07T17:41:47.673Z,66.20
2022-10-07T17:44:15.535Z,66.20
2022-10-07T17:46:43.582Z,66.20
2022-10-07T17:49:15.738Z,66.30
2022-10-07T17:51:44.232Z,66.30
2022-10-07T17:54:13.873Z,66.30
2022-10-07T17:56:43.597Z,66.30
2022-10-07T17:59:11.854Z,66.20
2022-10-07T18:01:39.340Z,66.20
2022-10-07T18:04:10.254Z,66.20
2022-10-07T18:06:39.323Z,66.10
2022-10-07T18:09:08.373Z,66.10
2022-10-07T18:11:54.510Z,66.10
2022-10-07T18:14:40.789Z,66.10
2022-10-07T18:17:10.441Z,66.10
2022-10-07T18:19:40.057Z,66.10
2022-10-07T18:22:08.083Z,66.10
2022-10-07T18:24:35.640Z,66.10
2022-10-07T18:27:03.186Z,66.10
2022-10-07T18:29:34.600Z,66.10
2022-10-07T18:32:05.015Z,66.10
2022-10-07T18:34:33.127Z,66.10
2022-10-07T18:37:01.453Z,66.10
2022-10-07T18:39:29.993Z,66.20
2022-10-07T18:41:58.501Z,66.20
2022-10-07T18:44:26.517Z,66.20
2022-10-07T18:46:54.373Z,66.20
2022-10-07T18:49:23.349Z,66.20
2022-10-07T18:51:51.387Z,66.20
2022-10-07T18:54:20.578Z,66.20
2022-10-07T18:56:49.323Z,66.30
2022-10-07T18:59:18.988Z,66.30
2022-10-07T19:01:50.461Z,66.40
2022-10-07T19:04:22.510Z,66.40
2022-10-07T19:06:52.085Z,66.50
2022-10-07T19:09:29.355Z,66.50
2022-10-07T19:12:01.329Z,66.50
2022-10-07T19:14:32.602Z,66.50
2022-10-07T19:17:03.412Z,66.60
2022-10-07T19:19:34.817Z,66.60
2022-10-07T19:22:05.652Z,66.60
2022-10-07T19:24:57.523Z,66.70
2022-10-07T19:27:26.231Z,66.70
2022-10-07T19:29:54.722Z,66.70
2022-10-07T19:32:24.797Z,66.80
2022-10-07T19:34:54.270Z,66.80
2022-10-07T19:37:33.873Z,66.80
2022-10-07T19:40:03.745Z,66.80
2022-10-07T19:42:32.485Z,66.90
2022-10-07T19:45:03.040Z,66.90
2022-10-07T19:47:34.104Z,66.90
2022-10-07T19:50:03.285Z,66.90
2022-10-07T19:52:32.775Z,67.00
2022-10-07T19:55:04.122Z,66.90
2022-10-07T19:57:32.692Z,67.00
2022-10-07T20:00:05.340Z,66.90
2022-10-07T20:02:57.821Z,66.90
2022-10-07T20:05:34.991Z,66.90
2022-10-07T20:08:06.855Z,66.90
2022-10-07T20:10:39.085Z,66.90
2022-10-07T20:13:09.262Z,66.80
2022-10-07T20:15:37.404Z,66.90
2022-10-07T20:18:05.195Z,66.90
2022-10-07T20:20:33.627Z,66.90
2022-10-07T20:23:01.256Z,66.90
2022-10-07T20:25:28.762Z,67.00
2022-10-07T20:27:56.191Z,66.90
2022-10-07T20:30:23.680Z,66.90
2022-10-07T20:32:51.117Z,67.00
2022-10-07T20:35:18.637Z,66.90
2022-10-07T20:37:46.182Z,67.00
2022-10-07T20:40:32.091Z,67.00
2022-10-07T20:43:00.829Z,67.00
2022-10-07T20:45:28.394Z,67.00
2022-10-07T20:47:59.709Z,67.00
2022-10-07T20:50:27.136Z,67.00
2022-10-07T20:52:54.651Z,67.10
2022-10-07T20:55:22.276Z,67.00
2022-10-07T20:57:49.743Z,67.10
2022-10-07T21:00:17.356Z,67.10
2022-10-07T21:02:45.292Z,67.20
2022-10-07T21:05:13.848Z,67.10
2022-10-07T21:07:42.368Z,67.20
2022-10-07T21:10:09.763Z,67.10
2022-10-07T21:12:37.897Z,67.20
2022-10-07T21:15:05.721Z,67.10
2022-10-07T21:17:34.795Z,67.10
2022-10-07T21:20:02.276Z,67.10
2022-10-07T21:22:29.828Z,67.10
2022-10-07T21:24:58.871Z,67.00
2022-10-07T21:27:26.333Z,67.10
2022-10-07T21:29:53.820Z,67.10
2022-10-07T21:32:21.355Z,67.10
2022-10-07T21:34:48.799Z,67.10
2022-10-07T21:37:16.328Z,67.20
2022-10-07T21:39:43.763Z,67.20
2022-10-07T21:42:11.422Z,67.20
2022-10-07T21:44:38.909Z,67.20
2022-10-07T21:47:06.475Z,67.20
2022-10-07T21:49:33.910Z,67.20
2022-10-07T21:52:01.544Z,67.20
2022-10-07T21:54:30.499Z,67.20
2022-10-07T21:56:58.207Z,67.30
2022-10-07T21:59:25.668Z,67.30
2022-10-07T22:01:53.147Z,67.20
2022-10-07T22:04:20.669Z,67.20
2022-10-07T22:07:06.518Z,67.10
2022-10-07T22:09:35.093Z,67.10
2022-10-07T22:12:02.483Z,67.10
2022-10-07T22:14:29.952Z,67.20
2022-10-07T22:16:57.530Z,67.20
2022-10-07T22:19:25.425Z,67.20
2022-10-07T22:21:53.192Z,67.20
2022-10-07T22:24:20.686Z,67.20
2022-10-07T22:26:48.769Z,67.20
2022-10-07T22:29:18.079Z,67.20
2022-10-07T22:31:47.319Z,67.20
2022-10-07T22:34:33.115Z,67.20
2022-10-07T22:37:00.771Z,67.30
2022-10-07T22:39:31.507Z,67.30
2022-10-07T22:41:59.460Z,67.30
2022-10-07T22:44:29.759Z,67.30
2022-10-07T22:46:59.503Z,67.30
2022-10-07T22:49:30.072Z,67.40
2022-10-07T22:52:00.199Z,67.40
2022-10-07T22:54:28.082Z,67.40
2022-10-07T22:56:55.981Z,67.70
2022-10-07T22:59:23.461Z,67.50
2022-10-07T23:01:50.880Z,67.60
2022-10-07T23:04:20.444Z,67.90
2022-10-07T23:06:48.343Z,68.20
2022-10-07T23:09:16.233Z,68.50
2022-10-07T23:11:43.782Z,68.80
2022-10-07T23:14:12.185Z,69.10
2022-10-07T23:16:39.667Z,69.20
2022-10-07T23:19:07.032Z,69.40
2022-10-07T23:21:35.509Z,69.50
2022-10-07T23:24:07.750Z,69.80
2022-10-07T23:26:37.274Z,70.20
2022-10-07T23:29:05.247Z,70.30
2022-10-07T23:31:33.244Z,70.20
2022-10-07T23:34:02.372Z,70.50
2022-10-07T23:36:31.074Z,70.70
2022-10-07T23:39:00.314Z,70.80
2022-10-07T23:41:29.827Z,71.00
2022-10-07T23:44:00.195Z,71.10
2022-10-07T23:46:29.445Z,71.20
2022-10-07T23:48:56.944Z,71.30
2022-10-07T23:51:28.066Z,71.60
2022-10-07T23:54:00.122Z,71.60
2022-10-07T23:56:28.202Z,71.70
2022-10-07T23:58:55.740Z,71.70
